Time;durP1;ratioP1;P1;durP2;ratioP2;P2;SDS_P1;SDS_P2;PMS_P1;PMS_P2;Temp;Humidity;BMP_temperature;BMP_pressure;BME280_temperature;BME280_humidity;BME280_pressure;Samples;Min_cycle;Max_cycle;Signal;HPM_P1;HPM_P2
2022/01/26 00:06:38;;;;;;;72.23;22.50;;;4.20;99.90;;;;;;5017485;28;20250;-52
2022/01/26 00:09:05;;;;;;;65.23;21.63;;;4.20;99.90;;;;;;5011842;28;20923;-52
2022/01/26 00:11:31;;;;;;;60.83;20.27;;;4.20;99.90;;;;;;5018495;28;20446;-52
2022/01/26 00:14:02;;;;;;;56.60;18.80;;;4.10;99.90;;;;;;5031825;28;20842;-52
2022/01/26 00:16:43;;;;;;;54.97;20.90;;;4.10;99.90;;;;;;5025347;28;20589;-52
2022/01/26 00:19:19;;;;;;;58.87;19.50;;;4.20;99.90;;;;;;5026914;28;20548;-51
2022/01/26 00:21:50;;;;;;;58.73;18.87;;;4.20;99.90;;;;;;5028986;28;20438;-52
2022/01/26 00:29:23;;;;;;;50.77;17.33;;;4.20;99.90;;;;;;5028173;28;20531;-51
2022/01/26 00:40:22;;;;;;;49.87;16.67;;;4.10;99.90;;;;;;5024670;28;20463;-51
2022/01/26 00:42:51;;;;;;;49.27;17.93;;;4.10;99.90;;;;;;5028997;28;20478;-52
2022/01/26 00:45:21;;;;;;;44.20;15.30;;;4.10;99.90;;;;;;5030017;28;20539;-52
2022/01/26 00:47:48;;;;;;;42.93;15.50;;;4.10;99.90;;;;;;5030353;28;20429;-52
2022/01/26 00:50:13;;;;;;;51.50;17.37;;;4.10;99.90;;;;;;5030353;28;20457;-52
2022/01/26 00:52:41;;;;;;;46.97;16.17;;;4.00;99.90;;;;;;5029490;28;20465;-51
2022/01/26 00:55:14;;;;;;;51.73;15.40;;;4.00;99.90;;;;;;5030869;28;20195;-51
2022/01/26 00:57:40;;;;;;;51.17;17.23;;;4.00;99.90;;;;;;5030824;28;20438;-52
2022/01/26 01:00:10;;;;;;;53.47;18.10;;;4.00;99.90;;;;;;5025969;28;20491;-52
2022/01/26 01:02:35;;;;;;;51.93;17.67;;;4.00;99.90;;;;;;5046616;28;20444;-52
2022/01/26 01:05:07;;;;;;;42.80;16.77;;;4.00;99.90;;;;;;5030378;28;20852;-52
2022/01/26 01:07:37;;;;;;;47.67;18.03;;;4.00;99.90;;;;;;5030645;28;20201;-52
2022/01/26 01:10:04;;;;;;;48.93;16.67;;;4.00;99.90;;;;;;5030621;28;20466;-52
2022/01/26 01:12:31;;;;;;;51.37;17.93;;;3.90;99.90;;;;;;5030651;28;20524;-51
2022/01/26 01:14:56;;;;;;;49.97;16.90;;;4.00;99.90;;;;;;5030260;28;20441;-52
2022/01/26 01:17:25;;;;;;;47.07;15.90;;;4.00;99.90;;;;;;5030532;28;20449;-52
2022/01/26 01:20:25;;;;;;;54.43;16.70;;;4.00;99.90;;;;;;5035757;28;20226;-51
2022/01/26 01:23:16;;;;;;;47.43;17.73;;;4.00;99.90;;;;;;5026091;28;21395;-52
2022/01/26 01:28:54;;;;;;;54.43;18.07;;;4.00;99.90;;;;;;5030065;28;20505;-51
2022/01/26 01:31:39;;;;;;;54.57;17.73;;;4.00;99.90;;;;;;5029306;28;20433;-52
2022/01/26 01:34:03;;;;;;;51.77;16.70;;;4.00;99.90;;;;;;5028902;28;20529;-52
2022/01/26 01:36:29;;;;;;;53.33;17.80;;;4.00;99.90;;;;;;5026012;28;20924;-52
2022/01/26 01:38:55;;;;;;;56.00;18.33;;;4.00;99.90;;;;;;5029376;28;20245;-52
2022/01/26 01:41:21;;;;;;;58.53;18.50;;;4.00;99.90;;;;;;5029128;28;20246;-52
2022/01/26 01:43:47;;;;;;;55.43;19.63;;;4.00;99.90;;;;;;5029387;28;20488;-52
2022/01/26 01:46:12;;;;;;;46.67;16.87;;;4.00;99.90;;;;;;5028983;28;20458;-52
2022/01/26 01:48:38;;;;;;;51.33;16.80;;;4.00;99.90;;;;;;5029531;28;20179;-52
2022/01/26 01:51:07;;;;;;;49.73;18.27;;;4.00;99.90;;;;;;5029524;28;20179;-52
2022/01/26 01:53:44;;;;;;;48.70;17.23;;;4.00;99.90;;;;;;5028897;28;20179;-52
2022/01/26 01:56:12;;;;;;;50.93;17.70;;;4.00;99.90;;;;;;5029357;28;20437;-52
2022/01/26 01:58:38;;;;;;;55.37;18.57;;;4.00;99.90;;;;;;5029069;28;20496;-52
2022/01/26 02:01:04;;;;;;;58.60;19.07;;;4.00;99.90;;;;;;5019202;28;20438;-52
2022/01/26 02:03:30;;;;;;;53.20;16.70;;;3.90;99.90;;;;;;5029228;28;20883;-52
2022/01/26 02:05:56;;;;;;;54.93;18.80;;;4.00;99.90;;;;;;5028156;28;20487;-52
2022/01/26 02:08:21;;;;;;;56.53;18.10;;;4.00;99.90;;;;;;5028727;28;20216;-52
2022/01/26 02:10:47;;;;;;;58.93;20.27;;;4.00;99.90;;;;;;5029481;28;21112;-52
2022/01/26 02:16:18;;;;;;;54.77;19.47;;;4.00;99.90;;;;;;5029131;28;20425;-52
2022/01/26 02:49:32;;;;;;;64.87;19.33;;;4.00;99.90;;;;;;5029473;28;20464;-52
2022/01/26 02:53:55;;;;;;;58.70;18.10;;;3.90;99.90;;;;;;5033094;28;20525;-52
2022/01/26 03:04:11;;;;;;;59.77;19.97;;;3.90;99.90;;;;;;5032023;28;20489;-52
2022/01/26 03:06:48;;;;;;;56.43;19.90;;;3.90;99.90;;;;;;5029298;28;20450;-52
2022/01/26 03:09:18;;;;;;;55.93;19.40;;;3.90;99.90;;;;;;5032132;28;20461;-52
2022/01/26 03:11:46;;;;;;;59.70;20.07;;;3.90;99.90;;;;;;5032478;28;20429;-51
2022/01/26 03:14:30;;;;;;;56.53;20.77;;;3.90;99.90;;;;;;5031792;28;20433;-52
2022/01/26 03:17:07;;;;;;;55.10;20.03;;;3.90;99.90;;;;;;5032005;28;20429;-52
2022/01/26 03:30:02;;;;;;;64.73;21.70;;;3.90;99.90;;;;;;5029775;28;20413;-51
2022/01/26 03:35:18;;;;;;;68.27;21.50;;;3.90;99.90;;;;;;5027981;28;20432;-53
2022/01/26 03:37:52;;;;;;;71.37;21.50;;;3.90;99.90;;;;;;5031007;28;20454;-52
2022/01/26 03:40:18;;;;;;;67.73;21.93;;;3.90;99.90;;;;;;5031569;28;20471;-51
2022/01/26 03:42:44;;;;;;;70.80;21.70;;;3.90;99.90;;;;;;5031442;28;20434;-52
2022/01/26 03:45:10;;;;;;;59.33;21.57;;;3.90;99.90;;;;;;5031460;28;20473;-52
2022/01/26 03:47:35;;;;;;;73.10;24.83;;;3.90;99.90;;;;;;5031491;28;20430;-52
2022/01/26 03:50:01;;;;;;;75.23;23.30;;;3.90;99.90;;;;;;5030860;28;20183;-52
2022/01/26 03:52:27;;;;;;;81.57;24.57;;;3.90;99.90;;;;;;5030759;28;20610;-52
2022/01/26 03:54:52;;;;;;;64.73;22.13;;;3.90;99.90;;;;;;5030869;28;20430;-52
2022/01/26 03:57:18;;;;;;;66.97;23.00;;;3.90;99.90;;;;;;5031398;28;20195;-51
2022/01/26 03:59:43;;;;;;;72.93;24.33;;;3.90;99.90;;;;;;5031173;28;20229;-52
2022/01/26 04:02:09;;;;;;;66.57;23.27;;;3.90;99.90;;;;;;5030238;28;20717;-54
2022/01/26 04:04:42;;;;;;;73.37;23.13;;;3.80;99.90;;;;;;5030500;28;20270;-52
2022/01/26 04:07:08;;;;;;;72.43;22.63;;;3.80;99.90;;;;;;5031437;28;20167;-52
2022/01/26 04:09:34;;;;;;;73.50;24.43;;;3.90;99.90;;;;;;5030976;28;20436;-52
2022/01/26 04:11:59;;;;;;;71.20;22.90;;;3.80;99.90;;;;;;5031175;28;20679;-52
2022/01/26 04:14:26;;;;;;;66.07;21.43;;;3.90;99.90;;;;;;5031008;28;20254;-52
2022/01/26 04:16:52;;;;;;;60.00;22.43;;;3.80;99.90;;;;;;5030828;28;20241;-51
2022/01/26 04:19:18;;;;;;;71.67;22.27;;;3.80;99.90;;;;;;5030495;28;20434;-53
2022/01/26 04:24:21;;;;;;;60.40;21.70;;;3.80;99.90;;;;;;5030564;28;20469;-52
2022/01/26 04:26:56;;;;;;;58.53;21.20;;;3.80;99.90;;;;;;5031180;28;20425;-52
2022/01/26 04:29:27;;;;;;;62.07;21.70;;;3.80;99.90;;;;;;5046437;28;20440;-52
2022/01/26 04:31:53;;;;;;;65.83;21.30;;;3.80;99.90;;;;;;5030177;28;20453;-51
2022/01/26 04:34:19;;;;;;;66.47;21.37;;;3.90;99.90;;;;;;5030699;28;20484;-52
2022/01/26 04:39:18;;;;;;;55.63;19.97;;;3.90;99.90;;;;;;5030915;28;20430;-52
2022/01/26 04:41:52;;;;;;;59.67;21.40;;;3.80;99.90;;;;;;5029996;28;20437;-52
2022/01/26 04:44:23;;;;;;;57.33;19.73;;;3.90;99.90;;;;;;5030502;28;20471;-52
2022/01/26 04:46:49;;;;;;;75.43;21.13;;;3.90;99.90;;;;;;5030646;28;20797;-51
2022/01/26 04:49:15;;;;;;;60.70;21.50;;;3.80;99.90;;;;;;5029089;28;20429;-51
2022/01/26 04:51:41;;;;;;;55.13;18.17;;;3.80;99.90;;;;;;5030594;28;20430;-52
2022/01/26 04:54:07;;;;;;;60.63;18.73;;;3.80;99.90;;;;;;5030459;28;20266;-51
2022/01/26 04:56:32;;;;;;;58.53;18.13;;;3.80;99.90;;;;;;5025828;28;20449;-52
2022/01/26 04:58:58;;;;;;;54.17;19.00;;;3.70;99.90;;;;;;5038802;28;20198;-52
2022/01/26 05:01:23;;;;;;;57.77;19.03;;;3.70;99.90;;;;;;5030460;28;20182;-52
2022/01/26 05:03:49;;;;;;;55.23;18.30;;;3.70;99.90;;;;;;5029902;28;20284;-52
2022/01/26 05:06:14;;;;;;;52.47;17.80;;;3.80;99.90;;;;;;5029626;28;20183;-51
2022/01/26 05:08:40;;;;;;;47.93;17.03;;;3.80;99.90;;;;;;5030020;28;20179;-52
2022/01/26 05:11:10;;;;;;;48.57;18.33;;;3.70;99.90;;;;;;5029749;28;20654;-52
2022/01/26 05:13:35;;;;;;;52.23;17.10;;;3.70;99.90;;;;;;5029684;28;20167;-51
2022/01/26 05:16:02;;;;;;;46.70;16.40;;;3.70;99.90;;;;;;5029915;28;20441;-52
2022/01/26 05:18:29;;;;;;;61.53;17.70;;;3.70;99.90;;;;;;5029564;28;20703;-52
2022/01/26 05:20:56;;;;;;;50.97;16.37;;;3.70;99.90;;;;;;5029740;28;20449;-51
2022/01/26 05:23:22;;;;;;;47.57;17.40;;;3.70;99.90;;;;;;5030197;28;20434;-52
2022/01/26 05:25:47;;;;;;;49.60;16.30;;;3.70;99.90;;;;;;5029380;28;20504;-51
2022/01/26 05:28:13;;;;;;;46.53;16.60;;;3.70;99.90;;;;;;5029613;28;20218;-52
2022/01/26 05:30:38;;;;;;;48.87;16.60;;;3.70;99.90;;;;;;5029511;28;20179;-52
2022/01/26 05:33:04;;;;;;;47.77;17.00;;;3.70;99.90;;;;;;5029492;28;20175;-52
2022/01/26 05:35:30;;;;;;;47.30;15.83;;;3.70;99.90;;;;;;5029830;28;20269;-52
2022/01/26 05:37:56;;;;;;;50.90;17.07;;;3.70;99.90;;;;;;5029097;28;20516;-51
2022/01/26 05:40:22;;;;;;;41.63;15.73;;;3.70;99.90;;;;;;5029643;28;20795;-51
2022/01/26 05:42:48;;;;;;;41.40;15.80;;;3.70;99.90;;;;;;5029407;28;20179;-52
2022/01/26 05:45:32;;;;;;;52.40;16.60;;;3.70;99.90;;;;;;5029464;28;20472;-52
2022/01/26 05:47:57;;;;;;;47.07;16.57;;;3.70;99.90;;;;;;5027122;28;20164;-51
2022/01/26 05:50:23;;;;;;;48.33;17.00;;;3.60;99.90;;;;;;5029591;28;20425;-52
2022/01/26 05:52:50;;;;;;;58.13;18.00;;;3.60;99.90;;;;;;5029165;28;20246;-51
2022/01/26 05:55:16;;;;;;;49.37;17.37;;;3.60;99.90;;;;;;5029094;28;20217;-51
2022/01/26 05:57:41;;;;;;;50.03;17.43;;;3.60;99.90;;;;;;5029267;28;20473;-51
2022/01/26 06:00:08;;;;;;;51.10;18.43;;;3.60;99.90;;;;;;5028725;28;20899;-52
2022/01/26 06:02:33;;;;;;;53.77;18.60;;;3.60;99.90;;;;;;5028678;28;20194;-52
2022/01/26 06:04:59;;;;;;;51.33;17.37;;;3.60;99.90;;;;;;5028614;28;20495;-53
2022/01/26 06:07:24;;;;;;;56.60;18.10;;;3.60;99.90;;;;;;5028628;28;20218;-51
2022/01/26 06:09:50;;;;;;;51.30;17.73;;;3.70;99.90;;;;;;5028744;28;20189;-51
2022/01/26 06:12:15;;;;;;;51.67;17.90;;;3.60;99.90;;;;;;5029307;28;20186;-52
2022/01/26 06:14:41;;;;;;;44.70;17.30;;;3.60;99.90;;;;;;5028470;28;20205;-52
2022/01/26 06:17:07;;;;;;;48.03;17.40;;;3.60;99.90;;;;;;5028414;28;20195;-51
2022/01/26 06:19:33;;;;;;;53.23;19.20;;;3.60;99.90;;;;;;5028916;28;20224;-51
2022/01/26 06:21:59;;;;;;;53.27;17.70;;;3.70;99.90;;;;;;5027421;28;20461;-51
2022/01/26 06:24:24;;;;;;;51.20;18.10;;;3.60;99.90;;;;;;5029136;28;20457;-52
2022/01/26 06:26:50;;;;;;;52.93;18.20;;;3.60;99.90;;;;;;5028876;28;20190;-52
2022/01/26 06:29:15;;;;;;;47.93;17.40;;;3.70;99.90;;;;;;5028809;28;20656;-52
2022/01/26 06:31:43;;;;;;;49.23;16.93;;;3.70;99.90;;;;;;5028568;28;20273;-51
2022/01/26 06:34:11;;;;;;;51.80;17.27;;;3.60;99.90;;;;;;5024736;28;20187;-51
2022/01/26 06:36:43;;;;;;;50.27;17.10;;;3.70;99.90;;;;;;5028840;28;20453;-51
2022/01/26 06:39:13;;;;;;;49.60;17.80;;;3.70;99.90;;;;;;5028919;28;20511;-52
2022/01/26 06:41:46;;;;;;;54.40;17.87;;;3.60;99.90;;;;;;5028159;28;20437;-51
2022/01/26 06:44:34;;;;;;;52.70;17.93;;;3.60;99.90;;;;;;5025525;28;20476;-57
2022/01/26 06:49:36;;;;;;;47.53;17.27;;;3.60;99.90;;;;;;5030103;28;20479;-51
2022/01/26 06:52:01;;;;;;;48.03;18.10;;;3.60;99.90;;;;;;5028945;28;20473;-51
2022/01/26 06:54:28;;;;;;;52.53;17.70;;;3.60;99.90;;;;;;5028865;28;20225;-51
2022/01/26 06:56:53;;;;;;;55.13;18.23;;;3.60;99.90;;;;;;5028408;28;20195;-52
2022/01/26 06:59:24;;;;;;;48.27;17.07;;;3.60;99.90;;;;;;5028787;28;20492;-52
2022/01/26 07:01:50;;;;;;;52.60;17.40;;;3.60;99.90;;;;;;5027146;28;20184;-52
2022/01/26 07:04:16;;;;;;;49.77;17.37;;;3.60;99.90;;;;;;5028562;28;21022;-52
2022/01/26 07:06:42;;;;;;;49.73;18.03;;;3.60;99.90;;;;;;5043396;28;20441;-51
2022/01/26 07:09:07;;;;;;;47.60;17.33;;;3.60;99.90;;;;;;5028576;28;20194;-51
2022/01/26 07:11:33;;;;;;;56.10;19.03;;;3.60;99.90;;;;;;5029113;28;20186;-51
2022/01/26 07:14:00;;;;;;;51.80;17.57;;;3.60;99.90;;;;;;5031779;28;20711;-51
2022/01/26 07:21:55;;;;;;;49.20;15.90;;;3.60;99.90;;;;;;5031508;28;20837;-52
2022/01/26 07:24:20;;;;;;;53.50;17.77;;;3.50;99.90;;;;;;5031338;28;20461;-51
2022/01/26 07:26:50;;;;;;;51.10;18.00;;;3.60;99.90;;;;;;5032021;28;20222;-51
2022/01/26 07:29:21;;;;;;;51.30;17.70;;;3.50;99.90;;;;;;5032100;28;20244;-52
2022/01/26 07:31:47;;;;;;;48.43;18.80;;;3.60;99.90;;;;;;5031597;28;20907;-51
2022/01/26 07:34:14;;;;;;;49.50;17.07;;;3.50;99.90;;;;;;5031727;28;20491;-52
2022/01/26 07:36:44;;;;;;;47.83;17.90;;;3.50;99.90;;;;;;5032029;28;20488;-52
2022/01/26 07:39:15;;;;;;;45.23;17.40;;;3.50;99.90;;;;;;5031388;28;20444;-52
2022/01/26 07:41:40;;;;;;;45.20;18.07;;;3.50;99.90;;;;;;5031202;28;20441;-52
2022/01/26 07:44:06;;;;;;;45.27;16.53;;;3.40;99.90;;;;;;5031275;28;21269;-52
2022/01/26 07:46:32;;;;;;;58.33;18.67;;;3.50;99.90;;;;;;5031270;28;20184;-52
2022/01/26 07:48:58;;;;;;;50.10;17.50;;;3.50;99.90;;;;;;5030758;28;20258;-51
2022/01/26 07:51:23;;;;;;;50.90;18.50;;;3.50;99.90;;;;;;5031402;28;20245;-51
2022/01/26 07:53:49;;;;;;;45.50;16.40;;;3.50;99.90;;;;;;5031125;28;20437;-51
2022/01/26 07:56:15;;;;;;;53.20;17.73;;;3.50;99.90;;;;;;5031423;28;20780;-56
2022/01/26 07:58:41;;;;;;;59.17;18.90;;;3.40;99.90;;;;;;5031354;28;20190;-51
2022/01/26 08:01:07;;;;;;;58.53;20.20;;;3.50;99.90;;;;;;5031486;28;20181;-51
2022/01/26 08:03:33;;;;;;;48.03;19.03;;;3.50;99.90;;;;;;5029742;28;20839;-51
2022/01/26 08:06:06;;;;;;;53.63;17.43;;;3.50;99.90;;;;;;5031436;28;20277;-52
2022/01/26 08:08:32;;;;;;;55.90;18.80;;;3.50;99.90;;;;;;5031498;28;20434;-51
2022/01/26 08:10:58;;;;;;;53.70;18.00;;;3.50;99.90;;;;;;5031185;28;20421;-52
2022/01/26 08:13:25;;;;;;;61.43;20.60;;;3.50;99.90;;;;;;5030151;28;20180;-51
2022/01/26 08:15:52;;;;;;;50.50;19.40;;;3.40;99.90;;;;;;5027966;28;20451;-51
2022/01/26 08:18:17;;;;;;;61.33;19.57;;;3.40;99.90;;;;;;5030343;28;20430;-51
2022/01/26 08:20:43;;;;;;;54.27;18.60;;;3.40;99.90;;;;;;5030737;28;20504;-52
2022/01/26 08:23:08;;;;;;;54.13;18.83;;;3.50;99.90;;;;;;5029827;28;20187;-51
2022/01/26 08:25:34;;;;;;;55.60;17.80;;;3.40;99.90;;;;;;5029883;28;20602;-52
2022/01/26 08:28:12;;;;;;;70.10;20.20;;;3.40;99.90;;;;;;5028394;28;20266;-51
2022/01/26 08:30:38;;;;;;;53.70;18.23;;;3.40;99.90;;;;;;5029663;28;20178;-51
2022/01/26 08:33:05;;;;;;;54.77;20.47;;;3.40;99.90;;;;;;5030387;28;20426;-52
2022/01/26 08:35:31;;;;;;;52.37;18.63;;;3.40;99.90;;;;;;5029907;28;20442;-52
2022/01/26 08:37:57;;;;;;;52.60;19.50;;;3.40;99.90;;;;;;5027376;28;20438;-52
2022/01/26 08:40:22;;;;;;;59.80;20.57;;;3.40;99.90;;;;;;5027675;28;20560;-52
2022/01/26 08:42:48;;;;;;;63.67;19.13;;;3.40;99.90;;;;;;5030252;28;20241;-51
2022/01/26 08:45:14;;;;;;;69.80;21.40;;;3.40;99.90;;;;;;5029008;28;20199;-51
2022/01/26 08:47:39;;;;;;;59.23;18.17;;;3.40;99.90;;;;;;5029758;28;20194;-51
2022/01/26 08:50:06;;;;;;;58.73;19.93;;;3.40;99.90;;;;;;5030667;28;20171;-51
2022/01/26 08:52:32;;;;;;;50.83;19.27;;;3.40;99.90;;;;;;5029929;28;20325;-52
2022/01/26 08:54:58;;;;;;;46.93;18.53;;;3.40;99.90;;;;;;5029170;28;20528;-52
2022/01/26 08:57:24;;;;;;;55.80;20.50;;;3.40;99.90;;;;;;5030123;28;20903;-52
2022/01/26 08:59:49;;;;;;;55.13;19.27;;;3.30;99.90;;;;;;5030402;28;20218;-52
2022/01/26 09:02:15;;;;;;;63.00;21.30;;;3.30;99.90;;;;;;5029857;28;20528;-58
2022/01/26 09:04:40;;;;;;;58.97;20.60;;;3.40;99.90;;;;;;5028848;28;20329;-51
2022/01/26 09:07:06;;;;;;;60.20;21.07;;;3.40;99.90;;;;;;5030597;28;20750;-52
2022/01/26 09:09:42;;;;;;;69.97;21.30;;;3.30;99.90;;;;;;5030184;28;20222;-52
2022/01/26 09:12:19;;;;;;;71.20;22.00;;;3.40;99.90;;;;;;5045973;28;20190;-52
2022/01/26 09:14:46;;;;;;;63.00;22.17;;;3.40;99.90;;;;;;5030894;28;20772;-52
2022/01/26 09:17:12;;;;;;;68.80;25.33;;;3.40;99.90;;;;;;5029597;28;20425;-52
2022/01/26 09:19:39;;;;;;;67.23;22.90;;;3.40;99.90;;;;;;5030556;28;20190;-52
2022/01/26 09:22:13;;;;;;;60.93;21.70;;;3.30;99.90;;;;;;5030820;28;20425;-51
2022/01/26 09:24:40;;;;;;;69.90;22.17;;;3.40;99.90;;;;;;5030645;28;20457;-52
2022/01/26 09:27:07;;;;;;;56.50;19.60;;;3.40;99.90;;;;;;5031102;28;20783;-52
2022/01/26 09:29:34;;;;;;;58.53;21.23;;;3.40;99.90;;;;;;5030670;28;20432;-52
2022/01/26 09:32:00;;;;;;;61.90;21.17;;;3.40;99.90;;;;;;5029311;28;20430;-51
2022/01/26 09:34:29;;;;;;;68.50;21.67;;;3.40;99.90;;;;;;5029432;28;20484;-52
2022/01/26 09:36:54;;;;;;;68.23;22.77;;;3.40;99.90;;;;;;5025658;28;20436;-52
2022/01/26 09:39:21;;;;;;;66.87;21.17;;;3.40;99.90;;;;;;5029895;28;20792;-52
2022/01/26 09:41:49;;;;;;;57.07;19.77;;;3.40;99.90;;;;;;5029651;28;20191;-51
2022/01/26 09:44:16;;;;;;;60.60;21.17;;;3.40;99.90;;;;;;5029317;28;20851;-51
2022/01/26 09:46:43;;;;;;;66.70;22.63;;;3.40;99.90;;;;;;5030028;28;20442;-51
2022/01/26 09:49:09;;;;;;;58.83;21.70;;;3.40;99.90;;;;;;5029019;28;20429;-52
2022/01/26 09:51:43;;;;;;;65.83;22.37;;;3.40;99.90;;;;;;5029457;28;20421;-52
2022/01/26 09:54:13;;;;;;;79.90;23.17;;;3.40;99.90;;;;;;5028430;28;20532;-52
2022/01/26 09:56:40;;;;;;;65.90;23.30;;;3.40;99.90;;;;;;5028199;28;20429;-52
2022/01/26 09:59:06;;;;;;;67.97;21.83;;;3.40;99.90;;;;;;5028856;28;20441;-51
2022/01/26 10:01:58;;;;;;;66.33;21.80;;;3.40;99.90;;;;;;5029075;28;20491;-51
2022/01/26 10:04:26;;;;;;;67.43;21.23;;;3.50;99.90;;;;;;5024351;28;20524;-52
2022/01/26 10:06:59;;;;;;;72.80;23.27;;;3.50;99.90;;;;;;5028941;28;20456;-51
2022/01/26 10:09:44;;;;;;;63.30;21.17;;;3.40;99.90;;;;;;5041288;28;20429;-52
2022/01/26 10:17:42;;;;;;;76.17;20.57;;;3.50;99.90;;;;;;5032945;28;20445;-52
2022/01/26 10:20:10;;;;;;;52.10;18.43;;;3.40;99.90;;;;;;5028786;28;20457;-53
2022/01/26 10:22:36;;;;;;;68.07;21.20;;;3.60;99.90;;;;;;5026502;28;20536;-54
2022/01/26 10:25:20;;;;;;;67.57;22.70;;;3.90;99.90;;;;;;5025647;28;20875;-54
2022/01/26 10:27:49;;;;;;;52.20;19.20;;;4.00;99.90;;;;;;5015419;28;20519;-54
2022/01/26 10:30:17;;;;;;;59.07;19.10;;;4.20;99.90;;;;;;5016021;28;20494;-54
2022/01/26 10:32:47;;;;;;;66.63;21.90;;;4.20;1.00;;;;;;5015326;28;20482;-54
2022/01/26 10:35:15;;;;;;;68.77;20.37;;;4.20;1.00;;;;;;5014838;28;20453;-53
2022/01/26 10:37:53;;;;;;;48.73;18.87;;;4.10;90.30;;;;;;5024162;28;20535;-53
2022/01/26 10:40:23;;;;;;;63.67;20.00;;;4.30;99.90;;;;;;5020551;28;20453;-54
2022/01/26 10:43:12;;;;;;;57.53;19.03;;;4.40;1.00;;;;;;5016205;28;20521;-53
2022/01/26 10:45:59;;;;;;;55.20;18.53;;;4.40;99.90;;;;;;5015174;28;21188;-54
2022/01/26 10:51:21;;;;;;;65.23;19.40;;;4.50;1.00;;;;;;5020208;28;20465;-54
2022/01/26 10:53:51;;;;;;;55.80;19.07;;;4.50;1.00;;;;;;5019039;28;20449;-54
2022/01/26 10:56:17;;;;;;;62.20;20.63;;;4.40;99.90;;;;;;5019225;28;20434;-53
2022/01/26 10:58:42;;;;;;;56.63;19.50;;;4.40;99.90;;;;;;5025813;28;20795;-53
2022/01/26 11:01:08;;;;;;;57.13;19.83;;;4.70;1.00;;;;;;5032866;28;20437;-54
2022/01/26 11:03:34;;;;;;;56.10;19.20;;;4.50;99.90;;;;;;5032416;28;20245;-53
2022/01/26 11:06:02;;;;;;;57.80;19.30;;;4.40;99.90;;;;;;5032407;28;20466;-54
2022/01/26 11:08:29;;;;;;;53.43;18.80;;;4.30;1.00;;;;;;5032665;28;20182;-54
2022/01/26 11:10:57;;;;;;;53.93;19.63;;;4.50;1.00;;;;;;5031824;28;20851;-54
2022/01/26 11:13:26;;;;;;;52.77;19.57;;;4.50;99.90;;;;;;5032899;28;20429;-54
2022/01/26 11:15:51;;;;;;;59.73;18.87;;;4.40;99.90;;;;;;5032979;28;20434;-50
2022/01/26 11:18:27;;;;;;;64.43;20.23;;;4.20;1.00;;;;;;5032423;28;20483;-51
2022/01/26 11:20:54;;;;;;;64.13;21.97;;;3.80;1.00;;;;;;5031256;28;20183;-51
2022/01/26 11:23:37;;;;;;;63.00;20.47;;;3.70;99.90;;;;;;5032107;28;20922;-51
2022/01/26 11:26:03;;;;;;;67.53;19.93;;;3.60;1.00;;;;;;5032162;28;20825;-51
2022/01/26 11:28:30;;;;;;;65.80;21.57;;;3.50;8.20;;;;;;5032184;28;20425;-51
2022/01/26 11:31:01;;;;;;;67.63;21.80;;;3.40;99.90;;;;;;5032299;28;20643;-51
2022/01/26 11:33:29;;;;;;;64.80;21.23;;;3.40;1.00;;;;;;5032199;28;20927;-51
2022/01/26 11:35:57;;;;;;;73.17;22.40;;;3.40;1.00;;;;;;5031925;28;20832;-52
2022/01/26 11:38:50;;;;;;;67.07;22.03;;;3.30;49.00;;;;;;5031176;28;20422;-51
2022/01/26 11:46:59;;;;;;;69.40;21.47;;;3.30;80.50;;;;;;5025717;28;20420;-51
2022/01/26 11:49:46;;;;;;;69.17;21.67;;;3.20;99.90;;;;;;5031593;28;20841;-51
2022/01/26 11:52:26;;;;;;;76.10;23.20;;;3.30;99.90;;;;;;5032141;28;20434;-51
2022/01/26 11:54:56;;;;;;;71.03;22.40;;;3.20;99.90;;;;;;5026484;28;20453;-51
2022/01/26 11:57:43;;;;;;;74.67;23.37;;;3.20;99.90;;;;;;5031075;28;20441;-51
2022/01/26 12:00:13;;;;;;;77.13;22.40;;;3.20;1.00;;;;;;5036128;28;20440;-52
2022/01/26 12:05:16;;;;;;;77.57;23.57;;;3.20;99.90;;;;;;5031133;28;20493;-52
2022/01/26 12:07:53;;;;;;;69.43;24.17;;;3.20;1.00;;;;;;5028392;28;20507;-52
2022/01/26 12:10:27;;;;;;;74.83;23.87;;;3.10;1.00;;;;;;5027631;28;20769;-51
2022/01/26 12:13:07;;;;;;;79.30;24.17;;;3.10;3.70;;;;;;5031029;28;20410;-52
2022/01/26 12:15:49;;;;;;;72.80;23.77;;;3.10;1.00;;;;;;5031638;28;20422;-51
2022/01/26 12:19:12;;;;;;;81.83;24.07;;;3.20;99.90;;;;;;5031098;28;20758;-51
2022/01/26 12:38:42;;;;;;;80.47;25.07;;;3.10;99.90;;;;;;5027916;28;20487;-51
2022/01/26 12:44:06;;;;;;;96.07;27.27;;;3.10;99.90;;;;;;5030771;28;20444;-51
2022/01/26 12:46:33;;;;;;;100.97;27.50;;;3.10;1.00;;;;;;5030541;28;20425;-51
2022/01/26 12:49:13;;;;;;;92.43;25.73;;;3.10;99.90;;;;;;5030624;28;20429;-52
2022/01/26 12:51:51;;;;;;;86.43;25.60;;;3.10;99.90;;;;;;5031043;28;20414;-51
2022/01/26 12:54:17;;;;;;;100.07;26.30;;;3.10;99.90;;;;;;5030447;28;20919;-52
2022/01/26 12:56:43;;;;;;;90.20;26.63;;;3.10;99.90;;;;;;5031173;28;20919;-52
2022/01/26 12:59:16;;;;;;;83.73;24.53;;;3.10;99.90;;;;;;5030452;28;20422;-51
2022/01/26 13:01:44;;;;;;;82.33;24.30;;;3.10;99.90;;;;;;5030768;28;20429;-51
2022/01/26 13:04:12;;;;;;;83.50;24.30;;;3.10;1.00;;;;;;5029649;28;20481;-51
2022/01/26 13:06:41;;;;;;;85.10;24.03;;;3.20;99.90;;;;;;5030869;28;20484;-51
2022/01/26 13:09:26;;;;;;;91.00;25.63;;;3.10;99.90;;;;;;5029855;28;20791;-51
2022/01/26 13:11:54;;;;;;;88.90;25.60;;;3.10;99.90;;;;;;5030172;28;20921;-51
2022/01/26 13:14:30;;;;;;;90.73;24.70;;;3.10;99.90;;;;;;5029977;28;20479;-51
2022/01/26 13:17:10;;;;;;;89.60;24.90;;;3.20;1.00;;;;;;5030454;28;20425;-51
2022/01/26 13:19:58;;;;;;;97.10;25.97;;;3.10;1.00;;;;;;5030502;28;20422;-51
2022/01/26 13:27:49;;;;;;;97.50;29.70;;;3.10;99.90;;;;;;5029567;28;20567;-52
2022/01/26 13:36:04;;;;;;;88.47;26.60;;;3.20;1.00;;;;;;5030816;28;20409;-51
2022/01/26 13:38:48;;;;;;;102.43;26.50;;;3.20;99.90;;;;;;5030563;28;20394;-51
2022/01/26 13:41:26;;;;;;;89.97;24.80;;;3.30;99.90;;;;;;5024960;28;20520;-51
2022/01/26 13:49:20;;;;;;;81.47;24.93;;;3.20;1.00;;;;;;5028873;28;20877;-51
2022/01/26 13:52:02;;;;;;;86.17;26.00;;;3.20;1.00;;;;;;5015353;28;20187;-52
2022/01/26 13:59:46;;;;;;;88.90;26.33;;;3.20;99.90;;;;;;5018097;28;20441;-51
2022/01/26 14:02:12;;;;;;;91.37;25.17;;;3.30;99.90;;;;;;5029312;28;20910;-51
2022/01/26 14:04:39;;;;;;;81.23;25.40;;;3.30;99.90;;;;;;5032738;28;20500;-52
2022/01/26 14:07:05;;;;;;;88.40;26.17;;;3.30;99.90;;;;;;5022460;28;20219;-51
2022/01/26 14:09:30;;;;;;;94.90;26.73;;;3.30;99.90;;;;;;5015969;28;20449;-51
2022/01/26 14:11:58;;;;;;;89.30;26.80;;;3.30;99.90;;;;;;5015645;28;20439;-51
2022/01/26 14:14:36;;;;;;;91.63;26.20;;;3.30;99.90;;;;;;5016000;28;20638;-51
2022/01/26 14:17:04;;;;;;;101.10;29.63;;;3.30;99.90;;;;;;5015660;28;21347;-51
2022/01/26 14:22:32;;;;;;;97.20;26.37;;;3.40;99.90;;;;;;5029668;28;20202;-54
2022/01/26 14:27:39;;;;;;;92.03;25.83;;;3.80;84.80;;;;;;5033823;28;20422;-54
2022/01/26 14:31:07;;;;;;;87.93;26.00;;;4.00;99.90;;;;;;5033555;28;20504;-54
2022/01/26 14:33:08;;;;;;;85.23;26.57;;;4.10;99.90;;;;;;5029764;28;20487;-54
2022/01/26 14:36:05;;;;;;;94.93;26.30;;;4.00;80.80;;;;;;5033328;28;20450;-54
2022/01/26 15:12:07;;;;;;;86.70;24.60;;;3.70;99.90;;;;;;5041384;28;20463;-52
2022/01/26 15:22:49;;;;;;;80.80;25.50;;;3.70;99.90;;;;;;5032882;28;20495;-52
2022/01/26 15:30:17;;;;;;;87.30;29.63;;;3.70;1.00;;;;;;5032915;28;20433;-53
2022/01/26 15:43:35;;;;;;;109.27;28.40;;;3.70;99.90;;;;;;5032763;28;20425;-51
2022/01/26 15:49:12;;;;;;;84.63;25.67;;;3.70;99.90;;;;;;5032249;28;20417;-53
2022/01/26 16:07:43;;;;;;;91.30;27.80;;;3.80;99.90;;;;;;5032586;28;20434;-51
2022/01/26 16:21:17;;;;;;;88.00;25.97;;;3.90;99.90;;;;;;5031376;28;20910;-52
2022/01/26 16:27:20;;;;;;;86.43;27.17;;;4.00;99.90;;;;;;5012015;28;20453;-52
2022/01/26 17:24:20;;;;;;;109.87;30.37;;;4.10;1.00;;;;;;5025732;28;20516;-52
2022/01/26 18:15:40;;;;;;;117.43;33.50;;;4.30;99.90;;;;;;5032095;28;20899;-51
2022/01/26 18:46:27;;;;;;;120.13;32.50;;;4.40;99.90;;;;;;5040703;28;20440;-52
2022/01/26 18:49:24;;;;;;;115.00;33.73;;;4.40;99.90;;;;;;4988161;28;20493;-52
2022/01/26 18:51:17;;;;;;;122.43;32.50;;;4.40;99.90;;;;;;4985438;28;20948;-51
2022/01/26 18:53:42;;;;;;;103.07;29.80;;;4.50;99.90;;;;;;5014486;28;20441;-51
2022/01/26 18:56:08;;;;;;;107.07;31.30;;;4.50;1.00;;;;;;5028758;28;20210;-51
2022/01/26 18:58:33;;;;;;;94.40;30.73;;;4.50;1.00;;;;;;5025094;28;20275;-51
2022/01/26 19:00:59;;;;;;;99.00;30.23;;;4.50;1.00;;;;;;5029359;28;20187;-51
2022/01/26 19:03:24;;;;;;;111.17;30.80;;;4.50;1.00;;;;;;5028231;28;20182;-52
2022/01/26 19:05:50;;;;;;;113.20;32.67;;;4.40;1.00;;;;;;5028653;28;20203;-51
2022/01/26 19:08:15;;;;;;;103.77;30.87;;;4.50;1.00;;;;;;5028647;28;20229;-52